createdAt,value
2023-04-07T00:02:16.737Z,14.07
2023-04-07T00:04:44.005Z,14.85
2023-04-07T00:07:11.229Z,16.83
2023-04-07T00:09:38.750Z,17.65
2023-04-07T00:12:06.951Z,19.20
2023-04-07T00:14:34.639Z,19.13
2023-04-07T00:17:02.078Z,21.90
2023-04-07T00:19:29.246Z,23.80
2023-04-07T00:21:56.198Z,23.05
2023-04-07T00:24:31.504Z,23.30
2023-04-07T00:27:01.922Z,25.23
2023-04-07T00:29:29.311Z,35.72
2023-04-07T00:31:56.418Z,68.55
2023-04-07T00:34:23.646Z,38.88
2023-04-07T00:36:54.505Z,25.83
2023-04-07T00:39:21.571Z,22.70
2023-04-07T00:41:49.478Z,21.08
2023-04-07T00:44:16.571Z,14.80
2023-04-07T00:46:43.782Z,16.13
2023-04-07T00:49:13.300Z,14.27
2023-04-07T00:51:40.872Z,15.88
2023-04-07T00:54:08.442Z,14.77
2023-04-07T00:56:36.402Z,16.33
2023-04-07T00:59:07.113Z,16.60
2023-04-07T01:01:40.910Z,17.20
2023-04-07T01:04:32.311Z,17.45
2023-04-07T01:07:14.351Z,18.63
2023-04-07T01:09:55.780Z,20.40
2023-04-07T01:12:34.326Z,29.75
2023-04-07T01:15:08.288Z,23.48
2023-04-07T01:17:42.499Z,18.25
2023-04-07T01:20:13.014Z,17.80
2023-04-07T01:22:47.327Z,15.55
2023-04-07T01:25:33.396Z,16.10
2023-04-07T01:28:03.789Z,18.98
2023-04-07T01:30:33.235Z,19.75
2023-04-07T01:33:00.719Z,22.50
2023-04-07T01:35:29.286Z,24.67
2023-04-07T01:37:56.539Z,27.67
2023-04-07T01:40:23.780Z,30.20
2023-04-07T01:42:51.319Z,29.45
2023-04-07T01:45:18.906Z,29.30
2023-04-07T01:47:46.741Z,27.52
2023-04-07T01:50:14.153Z,27.30
2023-04-07T01:52:42.055Z,26.10
2023-04-07T01:55:10.244Z,27.73
2023-04-07T01:57:44.153Z,26.23
2023-04-07T02:00:15.611Z,26.10
2023-04-07T02:02:46.348Z,24.20
2023-04-07T02:05:15.282Z,23.23
2023-04-07T02:07:50.567Z,23.77
2023-04-07T02:10:19.516Z,23.20
2023-04-07T02:12:47.256Z,23.52
2023-04-07T02:15:17.509Z,21.83
2023-04-07T02:17:48.949Z,15.63
2023-04-07T02:20:16.709Z,15.25
2023-04-07T02:22:44.752Z,14.05
2023-04-07T02:25:27.986Z,20.90
2023-04-07T02:27:56.367Z,16.02
2023-04-07T02:30:24.141Z,15.82
2023-04-07T02:32:52.277Z,14.82
2023-04-07T02:35:20.800Z,14.07
2023-04-07T02:37:47.916Z,13.38
2023-04-07T02:40:15.543Z,13.77
2023-04-07T02:42:42.939Z,15.13
2023-04-07T02:45:11.020Z,10.43
2023-04-07T02:47:38.677Z,7.18
2023-04-07T02:50:06.582Z,7.32
2023-04-07T02:52:35.995Z,7.32
2023-04-07T02:55:09.777Z,5.55
2023-04-07T02:57:36.882Z,3.90
2023-04-07T03:00:09.939Z,5.32
2023-04-07T03:02:56.429Z,5.68
2023-04-07T03:05:24.103Z,5.50
2023-04-07T03:07:51.298Z,4.95
2023-04-07T03:10:18.796Z,6.57
2023-04-07T03:12:46.293Z,6.00
2023-04-07T03:15:13.904Z,2.83
2023-04-07T03:17:46.268Z,3.15
2023-04-07T03:20:13.834Z,3.63
2023-04-07T03:22:41.011Z,3.22
2023-04-07T03:25:15.302Z,4.13
2023-04-07T03:27:42.878Z,4.10
2023-04-07T03:30:13.714Z,5.25
2023-04-07T03:32:41.249Z,4.82
2023-04-07T03:35:10.005Z,6.57
2023-04-07T03:37:37.981Z,6.75
2023-04-07T03:40:10.114Z,8.03
2023-04-07T03:42:37.645Z,4.28
2023-04-07T03:45:07.782Z,3.05
2023-04-07T03:47:38.280Z,2.83
2023-04-07T03:50:07.317Z,3.22
2023-04-07T03:52:42.719Z,4.10
2023-04-07T03:55:21.073Z,4.55
2023-04-07T03:57:48.729Z,4.00
2023-04-07T04:00:16.316Z,4.88
2023-04-07T04:02:43.640Z,3.10
2023-04-07T04:05:16.067Z,2.88
2023-04-07T04:07:43.485Z,2.45
2023-04-07T04:10:11.501Z,2.42
2023-04-07T04:12:43.269Z,2.83
2023-04-07T04:15:13.350Z,2.40
2023-04-07T04:17:41.335Z,2.75
2023-04-07T04:20:09.904Z,2.05
2023-04-07T04:22:47.556Z,2.55
2023-04-07T04:25:16.437Z,3.45
2023-04-07T04:27:48.794Z,3.20
2023-04-07T04:30:20.509Z,2.85
2023-04-07T04:32:51.997Z,2.38
2023-04-07T04:35:24.677Z,2.67
2023-04-07T04:38:18.993Z,2.75
2023-04-07T04:41:03.232Z,3.10
2023-04-07T04:43:31.952Z,3.08
2023-04-07T04:46:01.226Z,2.80
2023-04-07T04:48:33.242Z,3.35
2023-04-07T04:51:01.165Z,2.10
2023-04-07T04:53:28.530Z,2.60
2023-04-07T04:55:59.696Z,2.05
2023-04-07T04:58:40.251Z,2.83
2023-04-07T05:01:08.696Z,3.58
2023-04-07T05:03:43.060Z,2.50
2023-04-07T05:06:22.611Z,2.42
2023-04-07T05:08:52.174Z,3.03
2023-04-07T05:11:23.739Z,3.53
2023-04-07T05:13:53.863Z,2.45
2023-04-07T05:16:21.524Z,3.10
2023-04-07T05:18:49.594Z,3.10
2023-04-07T05:21:20.095Z,2.63
2023-04-07T05:23:48.162Z,2.83
2023-04-07T05:26:15.573Z,2.13
2023-04-07T05:28:43.867Z,2.95
2023-04-07T05:31:17.058Z,3.28
2023-04-07T05:33:47.286Z,5.35
2023-04-07T05:36:14.840Z,4.70
2023-04-07T05:38:42.776Z,5.53
2023-04-07T05:41:14.353Z,3.42
2023-04-07T05:43:41.631Z,4.53
2023-04-07T05:46:09.602Z,3.42
2023-04-07T05:48:46.246Z,2.78
2023-04-07T05:51:15.563Z,3.00
2023-04-07T05:53:43.433Z,3.47
2023-04-07T05:56:11.081Z,2.95
2023-04-07T05:58:47.242Z,3.58
2023-04-07T06:01:16.189Z,4.35
2023-04-07T06:03:44.420Z,4.82
2023-04-07T06:06:16.608Z,8.75
2023-04-07T06:08:46.300Z,5.38
2023-04-07T06:11:14.131Z,7.10
2023-04-07T06:13:41.514Z,5.50
2023-04-07T06:16:09.379Z,4.68
2023-04-07T06:18:38.151Z,6.80
2023-04-07T06:21:07.262Z,6.13
2023-04-07T06:23:34.629Z,6.88
2023-04-07T06:26:01.825Z,7.47
2023-04-07T06:28:30.060Z,6.07
2023-04-07T06:30:59.820Z,23.65
2023-04-07T06:33:28.605Z,8.88
2023-04-07T06:35:57.270Z,7.97
2023-04-07T06:38:24.734Z,6.47
2023-04-07T06:40:51.998Z,6.60
2023-04-07T06:43:19.387Z,5.57
2023-04-07T06:45:55.303Z,6.05
2023-04-07T06:48:23.100Z,5.35
2023-04-07T06:50:50.521Z,6.30
2023-04-07T06:53:17.794Z,7.47
2023-04-07T06:55:45.097Z,8.40
2023-04-07T06:58:12.503Z,6.20
2023-04-07T07:00:40.169Z,5.60
2023-04-07T07:03:08.104Z,5.10
2023-04-07T07:05:36.028Z,5.07
2023-04-07T07:08:03.159Z,4.55
2023-04-07T07:10:30.340Z,3.05
2023-04-07T07:12:57.508Z,4.40
2023-04-07T07:15:24.836Z,2.78
2023-04-07T07:17:52.412Z,3.75
2023-04-07T07:20:19.931Z,3.53
2023-04-07T07:22:48.053Z,2.85
2023-04-07T07:25:15.582Z,2.42
2023-04-07T07:27:42.847Z,3.15
2023-04-07T07:30:10.459Z,2.85
2023-04-07T07:32:37.815Z,3.10
2023-04-07T07:35:05.467Z,4.07
2023-04-07T07:37:33.416Z,2.60
2023-04-07T07:40:01.717Z,2.95
2023-04-07T07:42:30.755Z,3.10
2023-04-07T07:44:58.367Z,2.83
2023-04-07T07:47:26.777Z,3.90
2023-04-07T07:49:54.308Z,6.35
2023-04-07T07:52:22.034Z,3.50
2023-04-07T07:54:50.286Z,2.75
2023-04-07T07:57:17.828Z,2.38
2023-04-07T07:59:45.863Z,2.38
2023-04-07T08:02:13.488Z,2.50
2023-04-07T08:04:41.752Z,3.92
2023-04-07T08:07:09.072Z,2.88
2023-04-07T08:09:36.499Z,2.60
2023-04-07T08:12:03.804Z,2.60
2023-04-07T08:14:30.845Z,3.42
2023-04-07T08:16:57.958Z,2.17
2023-04-07T08:19:25.471Z,3.55
2023-04-07T08:21:52.808Z,2.55
2023-04-07T08:24:20.018Z,2.58
2023-04-07T08:26:47.697Z,2.35
2023-04-07T08:29:15.206Z,2.08
2023-04-07T08:31:42.507Z,1.90
2023-04-07T08:34:09.669Z,1.85
2023-04-07T08:36:37.475Z,2.15
2023-04-07T08:39:05.470Z,2.35
2023-04-07T08:41:39.308Z,2.78
2023-04-07T08:44:10.240Z,2.10
2023-04-07T08:46:40.885Z,2.78
2023-04-07T08:49:09.923Z,1.25
2023-04-07T08:51:37.915Z,2.47
2023-04-07T08:54:12.295Z,3.40
2023-04-07T08:56:41.342Z,3.85
2023-04-07T08:59:14.587Z,2.13
2023-04-07T09:01:42.229Z,2.03
2023-04-07T09:04:10.033Z,2.80
2023-04-07T09:06:37.771Z,2.55
2023-04-07T09:09:08.148Z,1.80
2023-04-07T09:11:36.716Z,1.23
2023-04-07T09:14:04.124Z,1.25
2023-04-07T09:16:31.495Z,1.88
2023-04-07T09:18:59.079Z,2.05
2023-04-07T09:21:27.045Z,3.13
2023-04-07T09:23:54.332Z,2.67
2023-04-07T09:26:24.576Z,2.90
2023-04-07T09:28:59.563Z,3.38
2023-04-07T09:31:49.887Z,2.70
2023-04-07T09:34:34.337Z,2.72
2023-04-07T09:37:01.867Z,2.83
2023-04-07T09:39:29.630Z,2.20
2023-04-07T09:41:57.965Z,3.90
2023-04-07T09:44:25.372Z,3.55
2023-04-07T09:46:53.361Z,4.45
2023-04-07T09:49:21.161Z,3.13
2023-04-07T09:52:07.163Z,3.22
2023-04-07T09:54:38.742Z,2.88
2023-04-07T09:57:10.413Z,2.55
2023-04-07T09:59:38.802Z,2.30
2023-04-07T10:02:06.388Z,1.80
2023-04-07T10:04:33.724Z,2.60
2023-04-07T10:07:01.196Z,2.50
2023-04-07T10:09:28.807Z,2.47
2023-04-07T10:11:57.961Z,1.90
2023-04-07T10:14:34.697Z,1.85
2023-04-07T10:17:03.398Z,2.20
2023-04-07T10:19:32.627Z,3.13
2023-04-07T10:22:00.009Z,2.75
2023-04-07T10:24:52.255Z,2.72
2023-04-07T10:27:21.525Z,2.47
2023-04-07T10:29:50.218Z,2.05
2023-04-07T10:32:17.461Z,2.05
2023-04-07T10:34:50.426Z,2.72
2023-04-07T10:37:20.985Z,2.70
2023-04-07T10:39:49.556Z,3.80
2023-04-07T10:42:41.572Z,2.25
2023-04-07T10:45:09.435Z,2.20
2023-04-07T10:48:09.302Z,3.38
2023-04-07T10:50:37.447Z,3.05
2023-04-07T10:53:12.355Z,3.53
2023-04-07T10:55:40.701Z,4.50
2023-04-07T10:58:14.957Z,4.57
2023-04-07T11:00:42.612Z,4.32
2023-04-07T11:03:13.475Z,4.22
2023-04-07T11:05:41.517Z,4.13
2023-04-07T11:08:09.014Z,4.70
2023-04-07T11:10:36.544Z,3.25
2023-04-07T11:13:07.795Z,3.00
2023-04-07T11:15:37.876Z,4.18
2023-04-07T11:18:16.557Z,3.88
2023-04-07T11:20:48.768Z,3.22
2023-04-07T11:23:16.462Z,3.92
2023-04-07T11:25:45.126Z,5.35
2023-04-07T11:28:13.126Z,4.63
2023-04-07T11:30:50.050Z,4.25
2023-04-07T11:33:22.093Z,5.72
2023-04-07T11:35:53.276Z,5.45
2023-04-07T11:38:21.334Z,5.10
2023-04-07T11:40:48.814Z,4.53
2023-04-07T11:43:19.746Z,5.07
2023-04-07T11:45:47.999Z,6.03
2023-04-07T11:48:29.560Z,7.38
2023-04-07T11:50:56.700Z,6.38
2023-04-07T11:53:28.853Z,5.38
2023-04-07T11:56:09.965Z,6.88
2023-04-07T11:58:37.508Z,5.57
2023-04-07T12:01:08.246Z,5.13
2023-04-07T12:03:36.782Z,5.38
2023-04-07T12:06:04.550Z,6.50
2023-04-07T12:08:42.497Z,5.75
2023-04-07T12:11:10.136Z,7.35
2023-04-07T12:13:37.794Z,6.93
2023-04-07T12:16:05.604Z,6.32
2023-04-07T12:18:33.256Z,7.47
2023-04-07T12:21:00.369Z,7.03
2023-04-07T12:23:27.653Z,5.82
2023-04-07T12:25:54.661Z,5.93
2023-04-07T12:28:22.032Z,5.60
2023-04-07T12:30:49.090Z,22.83
2023-04-07T12:33:16.967Z,15.43
2023-04-07T12:35:44.889Z,10.30
2023-04-07T12:38:12.727Z,5.65
2023-04-07T12:40:39.728Z,6.07
2023-04-07T12:43:07.405Z,6.40
2023-04-07T12:45:34.766Z,5.15
2023-04-07T12:48:02.738Z,6.72
2023-04-07T12:50:30.307Z,8.40
2023-04-07T12:52:59.874Z,5.55
2023-04-07T12:55:26.923Z,7.30
2023-04-07T12:57:55.850Z,6.30
2023-04-07T13:00:23.013Z,8.07
2023-04-07T13:02:50.485Z,9.75
2023-04-07T13:05:18.861Z,6.35
2023-04-07T13:07:47.373Z,6.68
2023-04-07T13:10:16.376Z,11.52
2023-04-07T13:12:43.886Z,5.45
2023-04-07T13:15:11.645Z,6.13
2023-04-07T13:17:39.209Z,5.18
2023-04-07T13:20:07.437Z,5.20
2023-04-07T13:22:36.037Z,3.80
2023-04-07T13:25:04.258Z,4.53
2023-04-07T13:27:31.286Z,4.60
2023-04-07T13:29:58.637Z,4.38
2023-04-07T13:32:26.973Z,4.85
2023-04-07T13:34:55.696Z,3.97
2023-04-07T13:37:23.265Z,5.15
2023-04-07T13:39:51.412Z,5.65
2023-04-07T13:42:20.660Z,8.02
2023-04-07T13:44:50.335Z,8.63
2023-04-07T13:47:21.575Z,8.45
2023-04-07T13:49:49.210Z,9.73
2023-04-07T13:52:17.542Z,8.85
2023-04-07T13:54:44.957Z,8.88
2023-04-07T13:57:14.500Z,9.20
2023-04-07T13:59:41.861Z,9.52
2023-04-07T14:02:09.128Z,8.77
2023-04-07T14:04:37.001Z,7.10
2023-04-07T14:07:04.170Z,7.80
2023-04-07T14:09:31.696Z,7.10
2023-04-07T14:11:59.310Z,7.85
2023-04-07T14:14:26.814Z,7.43
2023-04-07T14:16:54.472Z,8.80
2023-04-07T14:19:24.830Z,9.00
2023-04-07T14:21:52.213Z,8.55
2023-04-07T14:24:19.708Z,8.90
2023-04-07T14:26:46.916Z,8.85
2023-04-07T14:29:14.689Z,2.33
2023-04-07T14:31:42.723Z,2.70
2023-04-07T14:34:10.021Z,1.80
2023-04-07T14:36:37.402Z,1.65
2023-04-07T14:39:04.862Z,1.42
2023-04-07T14:41:32.059Z,1.42
2023-04-07T14:43:59.797Z,1.88
2023-04-07T14:46:27.265Z,2.38
2023-04-07T14:48:54.761Z,1.70
2023-04-07T14:51:22.354Z,2.38
2023-04-07T14:53:55.374Z,1.98
2023-04-07T14:56:22.423Z,1.13
2023-04-07T14:58:49.813Z,1.65
2023-04-07T15:01:17.546Z,1.30
2023-04-07T15:03:46.522Z,1.70
2023-04-07T15:06:14.010Z,1.95
2023-04-07T15:08:41.705Z,2.58
2023-04-07T15:11:09.469Z,1.63
2023-04-07T15:13:36.870Z,2.03
2023-04-07T15:16:09.016Z,2.08
2023-04-07T15:18:38.109Z,1.67
2023-04-07T15:21:05.881Z,1.77
2023-04-07T15:23:33.849Z,1.95
2023-04-07T15:26:01.434Z,1.65
2023-04-07T15:28:28.909Z,1.55
2023-04-07T15:30:56.255Z,1.92
2023-04-07T15:33:24.416Z,2.83
2023-04-07T15:35:51.533Z,2.08
2023-04-07T15:38:18.956Z,1.10
2023-04-07T15:40:46.329Z,1.52
2023-04-07T15:43:13.783Z,1.85
2023-04-07T15:45:44.518Z,1.83
2023-04-07T15:48:12.297Z,1.33
2023-04-07T15:50:39.885Z,1.23
2023-04-07T15:53:07.026Z,1.20
2023-04-07T15:55:34.833Z,1.73
2023-04-07T15:58:02.871Z,1.70
2023-04-07T16:00:34.110Z,2.35
2023-04-07T16:03:02.835Z,2.40
2023-04-07T16:05:30.349Z,1.92
2023-04-07T16:07:57.918Z,1.67
2023-04-07T16:10:25.079Z,2.90
2023-04-07T16:12:52.912Z,3.05
2023-04-07T16:15:28.957Z,2.08
2023-04-07T16:18:07.985Z,1.58
2023-04-07T16:20:35.428Z,1.88
2023-04-07T16:23:02.870Z,1.33
2023-04-07T16:25:30.856Z,2.75
2023-04-07T16:27:57.877Z,1.60
2023-04-07T16:30:25.362Z,1.80
2023-04-07T16:32:52.952Z,1.02
2023-04-07T16:35:20.611Z,2.08
2023-04-07T16:37:49.616Z,1.40
2023-04-07T16:40:16.998Z,2.25
2023-04-07T16:42:44.095Z,1.05
2023-04-07T16:45:11.595Z,1.42
2023-04-07T16:47:39.592Z,1.23
2023-04-07T16:50:07.221Z,0.65
2023-04-07T16:52:34.827Z,1.23
2023-04-07T16:55:02.267Z,0.82
2023-04-07T16:57:29.878Z,2.22
2023-04-07T16:59:57.418Z,1.80
2023-04-07T17:02:25.246Z,1.13
2023-04-07T17:04:52.309Z,1.52
2023-04-07T17:07:20.029Z,1.45
2023-04-07T17:09:47.020Z,1.60
2023-04-07T17:12:14.701Z,1.20
2023-04-07T17:14:42.540Z,1.30
2023-04-07T17:17:09.764Z,0.95
2023-04-07T17:19:37.309Z,1.52
2023-04-07T17:22:04.854Z,0.80
2023-04-07T17:24:32.568Z,1.00
2023-04-07T17:26:59.518Z,0.75
2023-04-07T17:29:28.818Z,0.70
2023-04-07T17:31:56.305Z,1.23
2023-04-07T17:34:24.004Z,1.38
2023-04-07T17:36:51.839Z,1.70
2023-04-07T17:39:19.387Z,1.40
2023-04-07T17:41:47.821Z,1.00
2023-04-07T17:44:15.330Z,1.10
2023-04-07T17:46:42.829Z,0.93
2023-04-07T17:49:09.877Z,0.88
2023-04-07T17:51:37.463Z,1.05
2023-04-07T17:54:04.750Z,0.88
2023-04-07T17:56:32.545Z,1.00
2023-04-07T17:58:59.890Z,1.02
2023-04-07T18:01:27.551Z,0.77
2023-04-07T18:03:54.863Z,1.35
2023-04-07T18:06:22.646Z,1.40
2023-04-07T18:08:52.723Z,0.68
2023-04-07T18:11:21.630Z,1.00
2023-04-07T18:13:49.107Z,0.50
2023-04-07T18:16:21.857Z,0.73
2023-04-07T18:21:16.698Z,0.93
2023-04-07T18:23:44.060Z,0.60
2023-04-07T18:26:11.377Z,1.00
2023-04-07T18:28:38.834Z,0.55
2023-04-07T18:31:07.353Z,0.80
2023-04-07T18:33:35.340Z,0.88
2023-04-07T18:36:07.043Z,0.55
2023-04-07T18:38:36.103Z,0.60
2023-04-07T18:41:03.990Z,0.98
2023-04-07T18:43:31.513Z,0.85
2023-04-07T18:45:58.773Z,1.00
2023-04-07T18:48:27.095Z,0.60
2023-04-07T18:50:55.193Z,0.68
2023-04-07T18:53:22.883Z,0.45
2023-04-07T18:55:51.026Z,1.10
2023-04-07T18:58:19.040Z,0.65
2023-04-07T19:00:46.985Z,0.95
2023-04-07T19:03:14.496Z,0.60
2023-04-07T19:05:42.361Z,0.40
2023-04-07T19:08:09.825Z,1.02
2023-04-07T19:10:37.246Z,0.70
2023-04-07T19:13:04.716Z,0.90
2023-04-07T19:15:37.989Z,0.85
2023-04-07T19:18:05.102Z,0.60
2023-04-07T19:20:33.468Z,0.63
2023-04-07T19:23:02.039Z,0.50
2023-04-07T19:25:30.791Z,0.75
2023-04-07T19:27:58.626Z,0.85
2023-04-07T19:30:25.919Z,0.40
2023-04-07T19:32:53.847Z,0.80
2023-04-07T19:35:21.317Z,0.77
2023-04-07T19:37:48.492Z,0.45
2023-04-07T19:40:16.091Z,0.70
2023-04-07T19:42:43.204Z,0.90
2023-04-07T19:45:11.119Z,0.55
2023-04-07T19:47:38.870Z,0.75
2023-04-07T19:50:06.675Z,1.35
2023-04-07T19:52:34.281Z,0.50
2023-04-07T19:55:02.696Z,1.10
2023-04-07T19:57:31.230Z,0.55
2023-04-07T19:59:58.883Z,0.93
2023-04-07T20:02:26.248Z,0.95
2023-04-07T20:04:53.642Z,0.80
2023-04-07T20:07:22.484Z,1.52
2023-04-07T20:09:53.681Z,1.10
2023-04-07T20:12:21.327Z,0.57
2023-04-07T20:14:48.315Z,1.17
2023-04-07T20:17:16.212Z,0.75
2023-04-07T20:19:43.509Z,0.93
2023-04-07T20:22:11.171Z,0.82
2023-04-07T20:24:39.181Z,1.10
2023-04-07T20:27:06.600Z,0.65
2023-04-07T20:29:34.265Z,1.30
2023-04-07T20:32:01.218Z,1.42
2023-04-07T20:34:28.835Z,0.90
2023-04-07T20:36:56.344Z,0.73
2023-04-07T20:39:23.690Z,0.50
2023-04-07T20:41:50.785Z,0.75
2023-04-07T20:44:18.475Z,1.13
2023-04-07T20:46:48.730Z,1.15
2023-04-07T20:49:15.979Z,0.68
2023-04-07T20:51:43.641Z,0.52
2023-04-07T20:54:10.794Z,0.80
2023-04-07T20:56:38.956Z,0.35
2023-04-07T20:59:06.143Z,0.70
2023-04-07T21:01:33.620Z,0.47
2023-04-07T21:04:02.372Z,0.63
2023-04-07T21:06:31.230Z,1.00
2023-04-07T21:08:58.708Z,0.85
2023-04-07T21:11:26.144Z,0.90
2023-04-07T21:13:53.359Z,0.70
2023-04-07T21:16:20.492Z,0.80
2023-04-07T21:18:47.969Z,0.90
2023-04-07T21:21:15.274Z,1.08
2023-04-07T21:23:43.125Z,0.90
2023-04-07T21:26:10.766Z,1.00
2023-04-07T21:28:39.834Z,0.70
2023-04-07T21:31:07.527Z,0.95
2023-04-07T21:33:34.864Z,1.02
2023-04-07T21:36:03.493Z,0.85
2023-04-07T21:38:31.230Z,0.77
2023-04-07T21:40:58.290Z,0.82
2023-04-07T21:43:28.603Z,0.77
2023-04-07T21:45:55.800Z,0.35
2023-04-07T21:48:23.464Z,0.90
2023-04-07T21:50:53.938Z,1.08
2023-04-07T21:53:21.307Z,0.77
2023-04-07T21:55:48.417Z,0.40
2023-04-07T21:58:16.252Z,0.63
2023-04-07T22:00:43.237Z,1.05
2023-04-07T22:03:10.554Z,0.47
2023-04-07T22:05:38.343Z,1.25
2023-04-07T22:08:06.624Z,1.00
2023-04-07T22:10:34.045Z,1.30
2023-04-07T22:13:01.366Z,0.70
2023-04-07T22:15:28.515Z,1.08
2023-04-07T22:17:58.928Z,1.00
2023-04-07T22:20:26.877Z,0.68
2023-04-07T22:22:57.012Z,1.33
2023-04-07T22:25:24.785Z,2.35
2023-04-07T22:27:52.722Z,1.30
2023-04-07T22:30:20.567Z,1.27
2023-04-07T22:32:48.243Z,0.63
2023-04-07T22:35:15.914Z,1.20
2023-04-07T22:37:43.148Z,1.25
2023-04-07T22:40:10.553Z,0.60
2023-04-07T22:42:39.202Z,0.98
2023-04-07T22:45:07.342Z,0.70
2023-04-07T22:47:34.588Z,1.00
2023-04-07T22:50:01.693Z,1.08
2023-04-07T22:52:29.471Z,0.80
2023-04-07T22:54:57.606Z,0.60
2023-04-07T22:57:25.815Z,0.73
2023-04-07T22:59:53.214Z,0.80
2023-04-07T23:02:21.038Z,0.82
2023-04-07T23:04:49.610Z,0.73
2023-04-07T23:07:16.872Z,0.80
2023-04-07T23:09:44.255Z,0.65
2023-04-07T23:12:11.608Z,0.88
2023-04-07T23:14:38.708Z,0.88
2023-04-07T23:17:06.146Z,0.82
2023-04-07T23:19:33.174Z,0.65
2023-04-07T23:22:00.449Z,0.70
2023-04-07T23:24:27.824Z,0.82
2023-04-07T23:26:56.272Z,0.65
2023-04-07T23:29:23.673Z,1.00
2023-04-07T23:31:51.037Z,0.80
2023-04-07T23:34:18.043Z,0.30
2023-04-07T23:36:45.455Z,0.60
2023-04-07T23:39:12.982Z,0.40
2023-04-07T23:41:40.670Z,0.50
2023-04-07T23:44:08.478Z,1.08
2023-04-07T23:46:35.873Z,0.57
2023-04-07T23:49:08.599Z,0.68
2023-04-07T23:51:36.524Z,0.60
2023-04-07T23:54:03.636Z,0.70
2023-04-07T23:56:31.966Z,0.43
2023-04-07T23:58:59.211Z,1.05
